sensor_id;sensor_type;location;lat;lon;timestamp;pressure;altitude;pressure_sealevel;temperature;humidity
10079;BME280;5078;42.544;22.966;2023-04-25T00:02:17;93164.97;;;10.47;100.00
10079;BME280;5078;42.544;22.966;2023-04-25T00:04:44;93162.97;;;10.49;100.00
10079;BME280;5078;42.544;22.966;2023-04-25T00:07:12;93155.34;;;10.68;100.00
10079;BME280;5078;42.544;22.966;2023-04-25T00:09:39;93167.72;;;10.89;100.00
10079;BME280;5078;42.544;22.966;2023-04-25T00:12:06;93177.16;;;10.98;100.00
10079;BME280;5078;42.544;22.966;2023-04-25T00:14:33;93170.84;;;11.06;100.00
10079;BME280;5078;42.544;22.966;2023-04-25T00:17:01;93185.00;;;11.13;100.00
10079;BME280;5078;42.544;22.966;2023-04-25T00:19:28;93183.75;;;11.09;100.00
10079;BME280;5078;42.544;22.966;2023-04-25T00:21:54;93147.72;;;10.86;100.00
10079;BME280;5078;42.544;22.966;2023-04-25T00:24:23;93173.16;;;11.09;100.00
10079;BME280;5078;42.544;22.966;2023-04-25T00:26:49;93143.63;;;10.84;100.00
10079;BME280;5078;42.544;22.966;2023-04-25T00:29:16;93130.69;;;10.39;100.00
10079;BME280;5078;42.544;22.966;2023-04-25T00:31:43;93136.03;;;10.24;100.00
10079;BME280;5078;42.544;22.966;2023-04-25T00:34:10;93149.28;;;10.24;100.00
10079;BME280;5078;42.544;22.966;2023-04-25T00:36:36;93157.19;;;10.39;100.00
10079;BME280;5078;42.544;22.966;2023-04-25T00:39:03;93151.44;;;10.35;100.00
10079;BME280;5078;42.544;22.966;2023-04-25T00:41:33;93146.72;;;10.31;100.00
10079;BME280;5078;42.544;22.966;2023-04-25T00:44:00;93136.44;;;10.00;100.00
10079;BME280;5078;42.544;22.966;2023-04-25T00:46:28;93138.53;;;10.04;100.00
10079;BME280;5078;42.544;22.966;2023-04-25T00:48:55;93132.22;;;9.84;100.00
10079;BME280;5078;42.544;22.966;2023-04-25T00:51:22;93128.13;;;9.81;100.00
10079;BME280;5078;42.544;22.966;2023-04-25T00:53:49;93134.75;;;9.92;100.00
10079;BME280;5078;42.544;22.966;2023-04-25T00:56:16;93121.13;;;9.95;100.00
10079;BME280;5078;42.544;22.966;2023-04-25T00:58:45;93134.75;;;10.13;100.00
10079;BME280;5078;42.544;22.966;2023-04-25T01:01:12;93124.38;;;10.19;100.00
10079;BME280;5078;42.544;22.966;2023-04-25T01:03:39;93123.91;;;10.08;100.00
10079;BME280;5078;42.544;22.966;2023-04-25T01:06:07;93119.78;;;10.06;100.00
10079;BME280;5078;42.544;22.966;2023-04-25T01:08:34;93116.13;;;10.07;100.00
10079;BME280;5078;42.544;22.966;2023-04-25T01:11:01;93115.41;;;10.20;100.00
10079;BME280;5078;42.544;22.966;2023-04-25T01:13:28;93108.09;;;10.22;100.00
10079;BME280;5078;42.544;22.966;2023-04-25T01:15:58;93105.69;;;10.27;100.00
10079;BME280;5078;42.544;22.966;2023-04-25T01:18:26;93095.53;;;10.30;100.00
10079;BME280;5078;42.544;22.966;2023-04-25T01:20:53;93096.00;;;10.34;100.00
10079;BME280;5078;42.544;22.966;2023-04-25T01:23:23;93075.91;;;10.25;100.00
10079;BME280;5078;42.544;22.966;2023-04-25T01:25:49;93082.13;;;10.32;100.00
10079;BME280;5078;42.544;22.966;2023-04-25T01:28:17;93104.22;;;10.46;100.00
10079;BME280;5078;42.544;22.966;2023-04-25T01:30:44;93106.88;;;10.46;100.00
10079;BME280;5078;42.544;22.966;2023-04-25T01:33:21;93104.66;;;10.49;100.00
10079;BME280;5078;42.544;22.966;2023-04-25T01:35:48;93097.72;;;10.48;100.00
10079;BME280;5078;42.544;22.966;2023-04-25T01:38:15;93097.69;;;10.42;100.00
10079;BME280;5078;42.544;22.966;2023-04-25T01:40:45;93094.59;;;10.38;100.00
10079;BME280;5078;42.544;22.966;2023-04-25T01:43:12;93085.81;;;10.38;100.00
10079;BME280;5078;42.544;22.966;2023-04-25T01:45:40;93089.81;;;10.27;100.00
10079;BME280;5078;42.544;22.966;2023-04-25T01:48:06;93101.69;;;10.31;100.00
10079;BME280;5078;42.544;22.966;2023-04-25T01:50:33;93101.75;;;10.16;100.00
10079;BME280;5078;42.544;22.966;2023-04-25T01:53:00;93082.44;;;10.22;100.00
10079;BME280;5078;42.544;22.966;2023-04-25T01:55:27;93085.66;;;10.18;100.00
10079;BME280;5078;42.544;22.966;2023-04-25T01:57:56;93079.47;;;10.10;100.00
10079;BME280;5078;42.544;22.966;2023-04-25T02:00:23;93085.00;;;10.15;100.00
10079;BME280;5078;42.544;22.966;2023-04-25T02:02:50;93080.91;;;10.13;100.00
10079;BME280;5078;42.544;22.966;2023-04-25T02:05:19;93073.66;;;10.22;100.00
10079;BME280;5078;42.544;22.966;2023-04-25T02:07:46;93074.66;;;10.21;100.00
10079;BME280;5078;42.544;22.966;2023-04-25T02:10:13;93071.94;;;10.35;100.00
10079;BME280;5078;42.544;22.966;2023-04-25T02:12:40;93072.81;;;10.43;100.00
10079;BME280;5078;42.544;22.966;2023-04-25T02:15:09;93073.09;;;10.54;100.00
10079;BME280;5078;42.544;22.966;2023-04-25T02:17:36;93075.78;;;10.61;100.00
10079;BME280;5078;42.544;22.966;2023-04-25T02:20:03;93071.72;;;10.65;100.00
10079;BME280;5078;42.544;22.966;2023-04-25T02:22:30;93074.22;;;10.73;100.00
10079;BME280;5078;42.544;22.966;2023-04-25T02:24:59;93070.78;;;10.79;100.00
10079;BME280;5078;42.544;22.966;2023-04-25T02:27:26;93057.13;;;10.83;100.00
10079;BME280;5078;42.544;22.966;2023-04-25T02:29:52;93067.81;;;10.96;100.00
10079;BME280;5078;42.544;22.966;2023-04-25T02:32:20;93059.59;;;10.84;100.00
10079;BME280;5078;42.544;22.966;2023-04-25T02:34:47;93059.22;;;11.00;100.00
10079;BME280;5078;42.544;22.966;2023-04-25T02:37:14;93049.06;;;11.04;100.00
10079;BME280;5078;42.544;22.966;2023-04-25T02:39:41;93060.13;;;11.14;100.00
10079;BME280;5078;42.544;22.966;2023-04-25T02:42:08;93066.03;;;11.16;100.00
10079;BME280;5078;42.544;22.966;2023-04-25T02:44:34;93064.44;;;11.22;100.00
10079;BME280;5078;42.544;22.966;2023-04-25T02:47:01;93033.38;;;11.09;100.00
10079;BME280;5078;42.544;22.966;2023-04-25T02:49:29;93062.59;;;11.29;100.00
10079;BME280;5078;42.544;22.966;2023-04-25T02:51:56;93061.59;;;11.30;100.00
10079;BME280;5078;42.544;22.966;2023-04-25T02:54:22;93055.28;;;11.31;100.00
10079;BME280;5078;42.544;22.966;2023-04-25T02:56:49;93048.75;;;11.34;100.00
10079;BME280;5078;42.544;22.966;2023-04-25T02:59:16;93052.00;;;11.29;100.00
10079;BME280;5078;42.544;22.966;2023-04-25T03:01:43;93048.31;;;11.30;100.00
10079;BME280;5078;42.544;22.966;2023-04-25T03:04:10;93048.75;;;11.34;100.00
10079;BME280;5078;42.544;22.966;2023-04-25T03:06:38;93054.06;;;11.34;100.00
10079;BME280;5078;42.544;22.966;2023-04-25T03:09:05;93055.28;;;11.31;100.00
10079;BME280;5078;42.544;22.966;2023-04-25T03:11:32;93059.97;;;11.29;100.00
10079;BME280;5078;42.544;22.966;2023-04-25T03:13:59;93050.97;;;11.23;100.00
10079;BME280;5078;42.544;22.966;2023-04-25T03:16:26;93046.31;;;11.39;100.00
10079;BME280;5078;42.544;22.966;2023-04-25T03:18:52;93037.25;;;11.20;100.00
10079;BME280;5078;42.544;22.966;2023-04-25T03:21:19;93047.50;;;11.30;100.00
10079;BME280;5078;42.544;22.966;2023-04-25T03:23:47;93053.41;;;11.25;100.00
10079;BME280;5078;42.544;22.966;2023-04-25T03:26:14;93051.13;;;11.15;100.00
10079;BME280;5078;42.544;22.966;2023-04-25T03:28:41;93049.53;;;11.21;100.00
10079;BME280;5078;42.544;22.966;2023-04-25T03:31:07;93048.91;;;11.19;100.00
10079;BME280;5078;42.544;22.966;2023-04-25T03:33:34;93047.03;;;11.13;100.00
10079;BME280;5078;42.544;22.966;2023-04-25T03:36:01;93044.75;;;11.03;100.00
10079;BME280;5078;42.544;22.966;2023-04-25T03:38:28;93043.78;;;11.11;100.00
10079;BME280;5078;42.544;22.966;2023-04-25T03:40:56;93052.56;;;11.11;100.00
10079;BME280;5078;42.544;22.966;2023-04-25T03:43:23;93051.50;;;11.06;100.00
10079;BME280;5078;42.544;22.966;2023-04-25T03:45:50;93044.59;;;11.18;100.00
10079;BME280;5078;42.544;22.966;2023-04-25T03:48:17;93053.63;;;11.23;100.00
10079;BME280;5078;42.544;22.966;2023-04-25T03:50:46;93055.28;;;11.31;100.00
10079;BME280;5078;42.544;22.966;2023-04-25T03:53:13;93054.03;;;11.27;100.00
10079;BME280;5078;42.544;22.966;2023-04-25T03:55:40;93060.56;;;11.25;100.00
10079;BME280;5078;42.544;22.966;2023-04-25T03:58:08;93058.09;;;11.16;100.00
10079;BME280;5078;42.544;22.966;2023-04-25T04:00:34;93018.22;;;10.96;100.00
10079;BME280;5078;42.544;22.966;2023-04-25T04:03:01;93042.16;;;11.16;100.00
10079;BME280;5078;42.544;22.966;2023-04-25T04:05:28;93059.56;;;11.32;100.00
10079;BME280;5078;42.544;22.966;2023-04-25T04:07:55;93042.38;;;11.21;100.00
10079;BME280;5078;42.544;22.966;2023-04-25T04:10:22;93052.63;;;11.31;100.00
10079;BME280;5078;42.544;22.966;2023-04-25T04:12:49;93055.50;;;11.36;100.00
10079;BME280;5078;42.544;22.966;2023-04-25T04:15:17;93056.50;;;11.29;100.00
10079;BME280;5078;42.544;22.966;2023-04-25T04:17:44;93062.22;;;11.39;100.00
10079;BME280;5078;42.544;22.966;2023-04-25T04:20:12;93053.84;;;11.29;100.00
10079;BME280;5078;42.544;22.966;2023-04-25T04:22:38;93047.53;;;11.50;100.00
10079;BME280;5078;42.544;22.966;2023-04-25T04:25:06;93044.09;;;11.62;100.00
10079;BME280;5078;42.544;22.966;2023-04-25T04:27:33;93041.47;;;11.76;100.00
10079;BME280;5078;42.544;22.966;2023-04-25T04:30:00;93048.19;;;11.72;100.00
10079;BME280;5078;42.544;22.966;2023-04-25T04:32:29;93055.72;;;11.68;100.00
10079;BME280;5078;42.544;22.966;2023-04-25T04:35:00;93048.00;;;11.73;100.00
10079;BME280;5078;42.544;22.966;2023-04-25T04:37:27;93048.63;;;11.82;100.00
10079;BME280;5078;42.544;22.966;2023-04-25T04:39:54;93043.25;;;11.55;100.00
10079;BME280;5078;42.544;22.966;2023-04-25T04:42:21;93050.00;;;11.58;100.00
10079;BME280;5078;42.544;22.966;2023-04-25T04:44:49;93044.31;;;11.61;100.00
10079;BME280;5078;42.544;22.966;2023-04-25T04:47:17;93055.72;;;11.68;100.00
10079;BME280;5078;42.544;22.966;2023-04-25T04:49:46;93042.25;;;11.63;100.00
10079;BME280;5078;42.544;22.966;2023-04-25T04:52:13;93055.34;;;11.71;100.00
10079;BME280;5078;42.544;22.966;2023-04-25T04:54:40;93047.56;;;11.70;100.00
10079;BME280;5078;42.544;22.966;2023-04-25T04:57:07;93058.00;;;11.71;100.00
10079;BME280;5078;42.544;22.966;2023-04-25T04:59:33;93053.31;;;11.66;100.00
10079;BME280;5078;42.544;22.966;2023-04-25T05:02:00;93061.25;;;11.66;100.00
10079;BME280;5078;42.544;22.966;2023-04-25T05:04:27;93053.06;;;11.55;100.00
10079;BME280;5078;42.544;22.966;2023-04-25T05:06:55;93056.56;;;11.62;100.00
10079;BME280;5078;42.544;22.966;2023-04-25T05:09:22;93052.22;;;11.48;100.00
10079;BME280;5078;42.544;22.966;2023-04-25T05:11:51;93063.28;;;11.58;100.00
10079;BME280;5078;42.544;22.966;2023-04-25T05:14:18;93056.13;;;11.52;100.00
10079;BME280;5078;42.544;22.966;2023-04-25T05:16:44;93048.97;;;11.52;100.00
10079;BME280;5078;42.544;22.966;2023-04-25T05:19:11;93054.53;;;11.71;100.00
10079;BME280;5078;42.544;22.966;2023-04-25T05:21:38;93041.91;;;11.99;100.00
10079;BME280;5078;42.544;22.966;2023-04-25T05:24:06;93043.94;;;12.17;100.00
10079;BME280;5078;42.544;22.966;2023-04-25T05:26:33;93037.38;;;12.46;100.00
10079;BME280;5078;42.544;22.966;2023-04-25T05:29:00;93046.34;;;12.52;100.00
10079;BME280;5078;42.544;22.966;2023-04-25T05:31:30;93052.03;;;12.76;100.00
10079;BME280;5078;42.544;22.966;2023-04-25T05:33:57;93047.84;;;13.06;100.00
10079;BME280;5078;42.544;22.966;2023-04-25T05:36:24;93055.50;;;13.41;100.00
10079;BME280;5078;42.544;22.966;2023-04-25T05:38:51;93058.25;;;13.91;100.00
10079;BME280;5078;42.544;22.966;2023-04-25T05:41:19;93065.47;;;14.16;100.00
10079;BME280;5078;42.544;22.966;2023-04-25T05:43:46;93049.38;;;14.48;100.00
10079;BME280;5078;42.544;22.966;2023-04-25T05:46:14;93053.69;;;14.49;100.00
10079;BME280;5078;42.544;22.966;2023-04-25T05:48:42;93059.22;;;14.72;100.00
10079;BME280;5078;42.544;22.966;2023-04-25T05:51:09;93053.53;;;14.43;100.00
10079;BME280;5078;42.544;22.966;2023-04-25T05:53:36;93059.97;;;14.61;100.00
10079;BME280;5078;42.544;22.966;2023-04-25T05:56:03;93047.16;;;14.44;100.00
10079;BME280;5078;42.544;22.966;2023-04-25T05:58:31;93051.53;;;14.39;100.00
10079;BME280;5078;42.544;22.966;2023-04-25T06:00:57;93059.97;;;14.11;100.00
10079;BME280;5078;42.544;22.966;2023-04-25T06:03:24;93059.13;;;14.10;100.00
10079;BME280;5078;42.544;22.966;2023-04-25T06:05:51;93064.72;;;14.02;100.00
10079;BME280;5078;42.544;22.966;2023-04-25T06:08:18;93061.53;;;14.18;100.00
10079;BME280;5078;42.544;22.966;2023-04-25T06:10:44;93056.38;;;14.23;100.00
10079;BME280;5078;42.544;22.966;2023-04-25T06:13:11;93056.41;;;14.17;100.00
10079;BME280;5078;42.544;22.966;2023-04-25T06:15:39;93059.72;;;13.87;100.00
10079;BME280;5078;42.544;22.966;2023-04-25T06:18:06;93042.31;;;13.85;100.00
10079;BME280;5078;42.544;22.966;2023-04-25T06:20:33;93060.25;;;13.71;100.00
10079;BME280;5078;42.544;22.966;2023-04-25T06:23:00;93033.19;;;13.67;100.00
10079;BME280;5078;42.544;22.966;2023-04-25T06:25:27;93066.53;;;13.83;100.00
10079;BME280;5078;42.544;22.966;2023-04-25T06:27:54;93062.81;;;13.84;100.00
10079;BME280;5078;42.544;22.966;2023-04-25T06:30:21;93054.41;;;13.55;100.00
10079;BME280;5078;42.544;22.966;2023-04-25T06:32:52;93063.09;;;13.76;100.00
10079;BME280;5078;42.544;22.966;2023-04-25T06:35:19;93067.59;;;13.75;100.00
10079;BME280;5078;42.544;22.966;2023-04-25T06:37:46;93064.34;;;13.67;100.00
10079;BME280;5078;42.544;22.966;2023-04-25T06:40:12;93062.34;;;13.62;100.00
10079;BME280;5078;42.544;22.966;2023-04-25T06:42:40;93068.03;;;13.97;100.00
10079;BME280;5078;42.544;22.966;2023-04-25T06:45:07;93076.31;;;13.89;100.00
10079;BME280;5078;42.544;22.966;2023-04-25T06:47:34;93076.75;;;13.86;100.00
10079;BME280;5078;42.544;22.966;2023-04-25T06:50:03;93075.88;;;13.92;100.00
10079;BME280;5078;42.544;22.966;2023-04-25T06:52:30;93072.53;;;14.03;100.00
10079;BME280;5078;42.544;22.966;2023-04-25T06:54:56;93041.19;;;13.99;100.00
10079;BME280;5078;42.544;22.966;2023-04-25T06:57:23;93070.47;;;14.31;100.00
10079;BME280;5078;42.544;22.966;2023-04-25T06:59:51;93067.66;;;14.26;100.00
10079;BME280;5078;42.544;22.966;2023-04-25T07:02:17;93069.22;;;14.33;100.00
10079;BME280;5078;42.544;22.966;2023-04-25T07:04:44;93063.72;;;14.28;100.00
10079;BME280;5078;42.544;22.966;2023-04-25T07:07:12;93075.25;;;14.22;100.00
10079;BME280;5078;42.544;22.966;2023-04-25T07:09:39;93073.19;;;14.24;100.00
10079;BME280;5078;42.544;22.966;2023-04-25T07:12:06;93074.28;;;14.16;100.00
10079;BME280;5078;42.544;22.966;2023-04-25T07:14:33;93080.50;;;14.35;100.00
10079;BME280;5078;42.544;22.966;2023-04-25T07:17:00;93071.66;;;14.60;100.00
10079;BME280;5078;42.544;22.966;2023-04-25T07:19:26;93072.00;;;15.07;100.00
10079;BME280;5078;42.544;22.966;2023-04-25T07:21:55;93072.31;;;15.36;100.00
10079;BME280;5078;42.544;22.966;2023-04-25T07:24:23;93060.38;;;15.68;100.00
10079;BME280;5078;42.544;22.966;2023-04-25T07:26:49;93059.59;;;16.22;100.00
10079;BME280;5078;42.544;22.966;2023-04-25T07:29:16;93059.88;;;16.67;100.00
10079;BME280;5078;42.544;22.966;2023-04-25T07:31:43;93054.44;;;16.97;100.00
10079;BME280;5078;42.544;22.966;2023-04-25T07:34:10;93046.94;;;17.23;100.00
10079;BME280;5078;42.544;22.966;2023-04-25T07:36:36;93050.44;;;16.41;100.00
10079;BME280;5078;42.544;22.966;2023-04-25T07:39:03;93043.94;;;16.49;99.26
10079;BME280;5078;42.544;22.966;2023-04-25T07:41:31;93030.66;;;16.42;100.00
10079;BME280;5078;42.544;22.966;2023-04-25T07:43:58;93034.16;;;16.31;100.00
10079;BME280;5078;42.544;22.966;2023-04-25T07:46:25;93032.84;;;15.98;95.69
10079;BME280;5078;42.544;22.966;2023-04-25T07:48:51;93039.66;;;15.94;100.00
10079;BME280;5078;42.544;22.966;2023-04-25T07:51:18;93033.41;;;15.40;95.54
10079;BME280;5078;42.544;22.966;2023-04-25T07:53:47;93044.28;;;15.08;97.06
10079;BME280;5078;42.544;22.966;2023-04-25T07:56:14;93054.19;;;15.19;98.58
10079;BME280;5078;42.544;22.966;2023-04-25T07:58:42;93048.03;;;15.37;98.97
10079;BME280;5078;42.544;22.966;2023-04-25T08:01:08;93045.41;;;15.49;100.00
10079;BME280;5078;42.544;22.966;2023-04-25T08:03:35;93045.47;;;15.91;98.50
10079;BME280;5078;42.544;22.966;2023-04-25T08:06:02;93041.63;;;15.87;98.04
10079;BME280;5078;42.544;22.966;2023-04-25T08:08:29;93041.75;;;16.46;89.34
10079;BME280;5078;42.544;22.966;2023-04-25T08:10:56;93052.09;;;16.54;85.33
10079;BME280;5078;42.544;22.966;2023-04-25T08:13:22;93042.66;;;16.63;85.07
10079;BME280;5078;42.544;22.966;2023-04-25T08:15:53;93033.84;;;16.98;83.50
10079;BME280;5078;42.544;22.966;2023-04-25T08:18:20;93031.28;;;16.91;82.53
10079;BME280;5078;42.544;22.966;2023-04-25T08:20:46;93019.03;;;16.72;82.57
10079;BME280;5078;42.544;22.966;2023-04-25T08:23:13;93016.44;;;17.12;82.76
10079;BME280;5078;42.544;22.966;2023-04-25T08:25:40;93026.59;;;17.51;72.20
10079;BME280;5078;42.544;22.966;2023-04-25T08:28:07;93020.94;;;17.64;65.33
10079;BME280;5078;42.544;22.966;2023-04-25T08:30:33;93022.66;;;17.70;67.36
10079;BME280;5078;42.544;22.966;2023-04-25T08:33:01;93019.31;;;17.63;65.15
10079;BME280;5078;42.544;22.966;2023-04-25T08:35:28;93016.41;;;17.24;66.99
10079;BME280;5078;42.544;22.966;2023-04-25T08:37:55;93019.03;;;17.48;65.43
10079;BME280;5078;42.544;22.966;2023-04-25T08:40:22;93015.16;;;17.55;67.08
10079;BME280;5078;42.544;22.966;2023-04-25T08:42:52;93014.31;;;17.26;66.25
10079;BME280;5078;42.544;22.966;2023-04-25T08:45:20;93014.47;;;17.48;55.55
10079;BME280;5078;42.544;22.966;2023-04-25T08:47:47;93010.16;;;18.04;56.36
10079;BME280;5078;42.544;22.966;2023-04-25T08:50:16;93011.06;;;18.10;54.13
10079;BME280;5078;42.544;22.966;2023-04-25T08:52:44;92999.75;;;18.42;56.50
10079;BME280;5078;42.544;22.966;2023-04-25T08:55:12;93005.16;;;17.51;54.50
10079;BME280;5078;42.544;22.966;2023-04-25T08:57:40;93003.31;;;17.68;55.46
10079;BME280;5078;42.544;22.966;2023-04-25T09:00:09;93000.63;;;17.80;55.07
10079;BME280;5078;42.544;22.966;2023-04-25T09:02:36;92998.53;;;17.41;52.88
10079;BME280;5078;42.544;22.966;2023-04-25T09:05:03;93003.81;;;17.65;50.90
10079;BME280;5078;42.544;22.966;2023-04-25T09:07:32;92995.59;;;17.55;51.39
10079;BME280;5078;42.544;22.966;2023-04-25T09:09:58;92999.56;;;17.12;54.15
10079;BME280;5078;42.544;22.966;2023-04-25T09:12:28;92998.19;;;16.74;53.95
10079;BME280;5078;42.544;22.966;2023-04-25T09:15:03;92989.50;;;16.78;52.57
10079;BME280;5078;42.544;22.966;2023-04-25T09:17:31;92995.97;;;16.94;51.24
10079;BME280;5078;42.544;22.966;2023-04-25T09:20:05;92993.16;;;17.13;52.64
10079;BME280;5078;42.544;22.966;2023-04-25T09:22:34;92993.00;;;17.60;52.32
10079;BME280;5078;42.544;22.966;2023-04-25T09:25:03;92994.56;;;17.15;53.28
10079;BME280;5078;42.544;22.966;2023-04-25T09:27:32;93003.00;;;17.24;50.37
10079;BME280;5078;42.544;22.966;2023-04-25T09:29:59;92989.31;;;17.20;57.83
10079;BME280;5078;42.544;22.966;2023-04-25T09:32:26;92998.31;;;17.02;70.19
10079;BME280;5078;42.544;22.966;2023-04-25T09:34:54;92988.41;;;15.97;71.16
10079;BME280;5078;42.544;22.966;2023-04-25T09:37:21;92990.50;;;15.83;75.26
10079;BME280;5078;42.544;22.966;2023-04-25T09:39:52;92993.34;;;16.24;77.00
10079;BME280;5078;42.544;22.966;2023-04-25T09:42:22;92992.97;;;16.32;71.83
10079;BME280;5078;42.544;22.966;2023-04-25T09:44:54;92976.59;;;16.40;84.25
10079;BME280;5078;42.544;22.966;2023-04-25T09:47:24;92988.34;;;16.39;79.53
10079;BME280;5078;42.544;22.966;2023-04-25T09:49:53;92985.31;;;16.35;71.73
10079;BME280;5078;42.544;22.966;2023-04-25T09:52:22;92951.88;;;15.79;68.15
10079;BME280;5078;42.544;22.966;2023-04-25T09:54:51;92975.31;;;15.65;69.06
10079;BME280;5078;42.544;22.966;2023-04-25T09:57:20;92970.31;;;15.69;66.85
10079;BME280;5078;42.544;22.966;2023-04-25T09:59:49;92974.34;;;15.90;75.41
10079;BME280;5078;42.544;22.966;2023-04-25T10:02:18;92977.25;;;15.88;66.03
10079;BME280;5078;42.544;22.966;2023-04-25T10:04:48;92980.66;;;16.19;73.82
10079;BME280;5078;42.544;22.966;2023-04-25T10:07:17;92994.00;;;16.07;72.84
10079;BME280;5078;42.544;22.966;2023-04-25T10:09:48;93008.25;;;15.78;72.33
10079;BME280;5078;42.544;22.966;2023-04-25T10:12:17;93027.19;;;15.27;80.98
10079;BME280;5078;42.544;22.966;2023-04-25T10:14:44;93027.16;;;14.97;91.90
10079;BME280;5078;42.544;22.966;2023-04-25T10:17:12;93016.31;;;14.55;90.99
10079;BME280;5078;42.544;22.966;2023-04-25T10:19:39;93004.09;;;14.66;100.00
10079;BME280;5078;42.544;22.966;2023-04-25T10:22:08;93001.94;;;15.12;99.43
10079;BME280;5078;42.544;22.966;2023-04-25T10:24:38;92987.31;;;15.74;93.74
10079;BME280;5078;42.544;22.966;2023-04-25T10:27:06;92986.16;;;15.70;82.39
10079;BME280;5078;42.544;22.966;2023-04-25T10:29:35;92979.00;;;15.64;76.86
10079;BME280;5078;42.544;22.966;2023-04-25T10:32:02;92957.59;;;15.94;75.82
10079;BME280;5078;42.544;22.966;2023-04-25T10:34:39;92975.50;;;15.94;74.52
10079;BME280;5078;42.544;22.966;2023-04-25T10:37:09;92974.13;;;16.74;64.83
10079;BME280;5078;42.544;22.966;2023-04-25T10:39:38;92968.53;;;16.75;65.60
10079;BME280;5078;42.544;22.966;2023-04-25T10:42:05;92972.03;;;16.52;67.24
10079;BME280;5078;42.544;22.966;2023-04-25T10:44:34;92950.84;;;16.86;62.50
10079;BME280;5078;42.544;22.966;2023-04-25T10:47:03;92953.75;;;17.25;57.00
10079;BME280;5078;42.544;22.966;2023-04-25T10:49:33;92948.06;;;17.67;58.23
10079;BME280;5078;42.544;22.966;2023-04-25T10:52:25;92928.88;;;17.41;56.07
10079;BME280;5078;42.544;22.966;2023-04-25T10:54:53;92928.06;;;17.41;57.70
10079;BME280;5078;42.544;22.966;2023-04-25T10:57:27;92932.59;;;16.59;59.44
10079;BME280;5078;42.544;22.966;2023-04-25T10:59:59;92922.16;;;16.46;61.84
10079;BME280;5078;42.544;22.966;2023-04-25T11:02:30;92928.41;;;16.52;63.58
10079;BME280;5078;42.544;22.966;2023-04-25T11:04:57;92928.66;;;16.50;63.91
10079;BME280;5078;42.544;22.966;2023-04-25T11:07:31;92930.75;;;16.48;61.82
10079;BME280;5078;42.544;22.966;2023-04-25T11:10:01;92941.34;;;16.20;65.49
10079;BME280;5078;42.544;22.966;2023-04-25T11:12:30;92957.63;;;16.18;66.62
10079;BME280;5078;42.544;22.966;2023-04-25T11:15:00;92973.66;;;15.94;73.51
10079;BME280;5078;42.544;22.966;2023-04-25T11:17:28;93007.47;;;15.28;95.43
10079;BME280;5078;42.544;22.966;2023-04-25T11:19:55;93007.78;;;13.71;90.13
10079;BME280;5078;42.544;22.966;2023-04-25T11:22:23;92985.38;;;13.79;82.92
10079;BME280;5078;42.544;22.966;2023-04-25T11:24:50;92994.25;;;13.73;98.80
10079;BME280;5078;42.544;22.966;2023-04-25T11:27:17;92967.22;;;13.37;100.00
10079;BME280;5078;42.544;22.966;2023-04-25T11:29:44;92972.38;;;13.32;100.00
10079;BME280;5078;42.544;22.966;2023-04-25T11:32:12;92971.69;;;13.05;100.00
10079;BME280;5078;42.544;22.966;2023-04-25T11:34:38;92979.47;;;13.00;100.00
10079;BME280;5078;42.544;22.966;2023-04-25T11:37:05;92966.25;;;12.87;100.00
10079;BME280;5078;42.544;22.966;2023-04-25T11:39:32;92967.88;;;12.88;100.00
10079;BME280;5078;42.544;22.966;2023-04-25T11:41:59;92961.09;;;12.92;100.00
10079;BME280;5078;42.544;22.966;2023-04-25T11:44:26;92978.22;;;13.09;100.00
10079;BME280;5078;42.544;22.966;2023-04-25T11:46:55;92979.47;;;13.45;100.00
10079;BME280;5078;42.544;22.966;2023-04-25T11:49:23;92958.47;;;13.87;100.00
10079;BME280;5078;42.544;22.966;2023-04-25T11:51:50;92978.50;;;14.15;100.00
10079;BME280;5078;42.544;22.966;2023-04-25T11:54:17;92978.28;;;13.73;100.00
10079;BME280;5078;42.544;22.966;2023-04-25T11:56:44;92978.44;;;13.46;100.00
10079;BME280;5078;42.544;22.966;2023-04-25T11:59:12;92984.56;;;13.53;100.00
10079;BME280;5078;42.544;22.966;2023-04-25T12:01:41;92974.84;;;13.34;100.00
10079;BME280;5078;42.544;22.966;2023-04-25T12:04:12;92980.16;;;13.34;100.00
10079;BME280;5078;42.544;22.966;2023-04-25T12:06:43;92983.00;;;13.39;100.00
10079;BME280;5078;42.544;22.966;2023-04-25T12:09:12;92972.38;;;13.64;100.00
10079;BME280;5078;42.544;22.966;2023-04-25T12:11:41;92976.13;;;14.07;100.00
10079;BME280;5078;42.544;22.966;2023-04-25T12:14:09;92975.16;;;14.44;100.00
10079;BME280;5078;42.544;22.966;2023-04-25T12:16:46;92964.00;;;14.91;100.00
10079;BME280;5078;42.544;22.966;2023-04-25T12:19:14;92963.59;;;15.06;97.01
10079;BME280;5078;42.544;22.966;2023-04-25T12:21:42;92969.00;;;15.18;85.88
10079;BME280;5078;42.544;22.966;2023-04-25T12:24:10;92960.72;;;15.38;80.99
10079;BME280;5078;42.544;22.966;2023-04-25T12:26:51;92944.00;;;15.12;93.62
10079;BME280;5078;42.544;22.966;2023-04-25T12:29:19;92948.84;;;15.34;87.50
10079;BME280;5078;42.544;22.966;2023-04-25T12:31:46;92956.50;;;15.60;83.57
10079;BME280;5078;42.544;22.966;2023-04-25T12:34:13;92960.53;;;15.93;93.02
10079;BME280;5078;42.544;22.966;2023-04-25T12:36:41;92972.72;;;16.12;83.37
10079;BME280;5078;42.544;22.966;2023-04-25T12:39:08;92957.88;;;16.28;79.51
10079;BME280;5078;42.544;22.966;2023-04-25T12:41:35;92965.19;;;16.09;81.80
10079;BME280;5078;42.544;22.966;2023-04-25T12:44:03;92969.69;;;15.43;83.08
10079;BME280;5078;42.544;22.966;2023-04-25T12:46:30;92978.75;;;15.84;77.15
10079;BME280;5078;42.544;22.966;2023-04-25T12:48:56;92962.13;;;15.70;80.92
10079;BME280;5078;42.544;22.966;2023-04-25T12:51:23;92962.16;;;15.94;84.01
10079;BME280;5078;42.544;22.966;2023-04-25T12:53:52;92972.00;;;15.82;86.45
10079;BME280;5078;42.544;22.966;2023-04-25T12:56:19;92967.72;;;15.62;84.08